Time;durP1;ratioP1;P1;durP2;ratioP2;P2;SDS_P1;SDS_P2;PMS_P1;PMS_P2;Temp;Humidity;BMP_temperature;BMP_pressure;BME280_temperature;BME280_humidity;BME280_pressure;Samples;Min_cycle;Max_cycle;Signal;HPM_P1;HPM_P2
2020/12/09 00:00:08;;;;;;;3.08;2.10;;;3.40;99.90;;;;;;4430481;32;20104;-59
2020/12/09 00:02:34;;;;;;;8.98;3.92;;;3.50;99.90;;;;;;4403858;32;20173;-59
2020/12/09 00:05:00;;;;;;;8.98;3.65;;;3.50;99.90;;;;;;4431664;32;20809;-58
2020/12/09 00:07:26;;;;;;;5.15;2.92;;;3.50;99.90;;;;;;4431330;32;20074;-58
2020/12/09 00:09:51;;;;;;;2.83;2.10;;;3.50;99.90;;;;;;4431282;32;20057;-59
2020/12/09 00:12:16;;;;;;;1.20;1.12;;;3.50;99.90;;;;;;4432174;32;20065;-57
2020/12/09 00:14:42;;;;;;;5.35;2.58;;;3.50;99.90;;;;;;4431482;32;20455;-55
2020/12/09 00:17:08;;;;;;;3.05;1.83;;;3.40;99.90;;;;;;4431350;32;20086;-59
2020/12/09 00:19:34;;;;;;;3.12;2.28;;;3.40;99.90;;;;;;4418223;32;20092;-55
2020/12/09 00:21:59;;;;;;;3.30;1.92;;;3.40;99.90;;;;;;4431540;32;20064;-57
2020/12/09 00:24:25;;;;;;;2.70;2.33;;;3.40;99.90;;;;;;4431468;32;20116;-59
2020/12/09 00:26:50;;;;;;;3.85;2.50;;;3.40;99.90;;;;;;4430106;32;20085;-58
2020/12/09 00:29:16;;;;;;;6.90;2.37;;;3.50;99.90;;;;;;4429895;32;20474;-57
2020/12/09 00:31:41;;;;;;;1.80;1.48;;;3.50;99.90;;;;;;4431009;32;20068;-55
2020/12/09 00:34:07;;;;;;;2.75;2.35;;;3.50;99.90;;;;;;4430977;32;20121;-57
2020/12/09 00:36:32;;;;;;;3.15;2.08;;;3.50;99.90;;;;;;4430597;32;20143;-59
2020/12/09 00:38:58;;;;;;;5.97;1.37;;;3.50;99.90;;;;;;4417260;32;20069;-56
2020/12/09 00:41:27;;;;;;;11.77;4.20;;;3.60;99.90;;;;;;4430356;32;20085;-58
2020/12/09 00:43:53;;;;;;;3.55;2.05;;;3.60;99.90;;;;;;4417795;32;20162;-58
2020/12/09 00:46:21;;;;;;;8.95;3.22;;;3.50;99.90;;;;;;4417574;32;20544;-58
2020/12/09 00:48:47;;;;;;;1.33;1.23;;;3.50;99.90;;;;;;4430007;32;20069;-59
2020/12/09 00:51:15;;;;;;;5.45;3.00;;;3.50;99.90;;;;;;4431832;32;20085;-59
2020/12/09 00:53:41;;;;;;;6.65;2.28;;;3.50;99.90;;;;;;4416788;32;20053;-55
2020/12/09 00:56:07;;;;;;;3.40;1.90;;;3.60;99.90;;;;;;4430396;32;20086;-59
2020/12/09 00:58:33;;;;;;;4.65;1.98;;;3.60;99.90;;;;;;4417089;32;20081;-55
2020/12/09 01:00:59;;;;;;;8.88;2.67;;;3.60;99.90;;;;;;4431808;32;20076;-57
2020/12/09 01:03:25;;;;;;;1.62;1.40;;;3.60;99.90;;;;;;4417949;32;20088;-59
2020/12/09 01:05:50;;;;;;;6.10;2.62;;;3.60;99.90;;;;;;4431081;32;20097;-57
2020/12/09 01:08:16;;;;;;;11.25;3.67;;;3.60;99.90;;;;;;4429911;32;20503;-60
2020/12/09 01:10:41;;;;;;;1.85;1.75;;;3.50;99.90;;;;;;4430213;32;20076;-56
2020/12/09 01:13:06;;;;;;;5.37;3.28;;;3.60;99.90;;;;;;4431046;32;20104;-58
2020/12/09 01:15:32;;;;;;;1.98;1.80;;;3.60;99.90;;;;;;4432337;32;20073;-58
2020/12/09 01:17:57;;;;;;;6.40;3.62;;;3.60;99.90;;;;;;4432802;32;20074;-56
2020/12/09 01:20:23;;;;;;;1.08;1.08;;;3.60;99.90;;;;;;4420087;32;20446;-54
2020/12/09 01:22:48;;;;;;;1.87;1.73;;;3.50;99.90;;;;;;4421101;32;20078;-54
2020/12/09 01:25:14;;;;;;;1.67;1.52;;;3.60;99.90;;;;;;4417246;32;20510;-59
2020/12/09 01:27:39;;;;;;;3.05;2.40;;;3.60;99.90;;;;;;4417833;32;20094;-55
2020/12/09 01:30:05;;;;;;;9.02;2.58;;;3.60;99.90;;;;;;4417401;32;20090;-59
2020/12/09 01:32:30;;;;;;;6.93;4.57;;;3.50;99.90;;;;;;4404422;32;20070;-59
2020/12/09 01:34:56;;;;;;;3.12;2.50;;;3.50;99.90;;;;;;4405605;32;20121;-56
2020/12/09 01:37:22;;;;;;;5.85;3.85;;;3.50;99.90;;;;;;4417663;32;20075;-60
2020/12/09 01:39:47;;;;;;;8.85;2.20;;;3.60;99.90;;;;;;4418702;32;20161;-60
2020/12/09 01:42:13;;;;;;;6.47;3.17;;;3.60;99.90;;;;;;4403857;32;20125;-59
2020/12/09 01:44:38;;;;;;;4.32;2.90;;;3.60;99.90;;;;;;4417518;32;20104;-57
2020/12/09 01:47:05;;;;;;;2.15;1.48;;;3.60;99.90;;;;;;4424346;32;20069;-57
2020/12/09 01:49:32;;;;;;;4.10;2.33;;;3.50;99.90;;;;;;4418649;32;20080;-59
2020/12/09 01:52:02;;;;;;;3.47;2.35;;;3.50;99.90;;;;;;4432734;32;20513;-60
2020/12/09 01:54:27;;;;;;;4.28;3.15;;;3.50;99.90;;;;;;4418582;32;20101;-58
2020/12/09 01:57:11;;;;;;;13.07;2.08;;;3.60;99.90;;;;;;4432017;32;20069;-59
2020/12/09 01:59:38;;;;;;;5.95;3.28;;;3.60;99.90;;;;;;4419790;32;20119;-59
2020/12/09 02:02:04;;;;;;;5.68;2.90;;;3.60;99.90;;;;;;4433402;32;20069;-59
2020/12/09 02:04:30;;;;;;;7.75;3.47;;;3.60;99.90;;;;;;4433080;32;20089;-60
2020/12/09 02:06:56;;;;;;;7.43;2.65;;;3.60;99.90;;;;;;4434138;32;20420;-59
2020/12/09 02:09:23;;;;;;;4.30;2.12;;;3.60;99.90;;;;;;4420461;32;20161;-59
2020/12/09 02:11:51;;;;;;;4.60;2.55;;;3.60;99.90;;;;;;4419901;32;20078;-60
2020/12/09 02:14:16;;;;;;;4.18;2.15;;;3.60;99.90;;;;;;4431764;32;20498;-59
2020/12/09 02:16:42;;;;;;;6.28;3.05;;;3.50;99.90;;;;;;4432089;32;20158;-59
2020/12/09 02:19:07;;;;;;;1.12;1.10;;;3.50;99.90;;;;;;4432919;32;20131;-59
2020/12/09 02:21:35;;;;;;;1.45;1.35;;;3.60;99.90;;;;;;4431933;32;20065;-57
2020/12/09 02:24:01;;;;;;;3.80;1.90;;;3.60;99.90;;;;;;4432091;32;20085;-60
2020/12/09 02:26:28;;;;;;;3.90;1.77;;;3.60;99.90;;;;;;4431738;32;20069;-59
2020/12/09 02:28:53;;;;;;;4.55;2.50;;;3.50;99.90;;;;;;4417721;32;20076;-59
2020/12/09 02:31:19;;;;;;;9.85;2.28;;;3.60;99.90;;;;;;4418056;32;20077;-58
2020/12/09 02:33:44;;;;;;;14.98;2.75;;;3.60;99.90;;;;;;4431489;32;20120;-59
2020/12/09 02:36:11;;;;;;;1.52;1.42;;;3.60;99.90;;;;;;4418011;32;20074;-58
2020/12/09 02:38:36;;;;;;;3.10;2.22;;;3.50;99.90;;;;;;4431702;32;20076;-58
2020/12/09 02:41:02;;;;;;;3.45;1.92;;;3.50;99.90;;;;;;4418268;32;20134;-59
2020/12/09 02:43:28;;;;;;;5.78;2.35;;;3.50;99.90;;;;;;4405481;32;20124;-59
2020/12/09 02:45:53;;;;;;;6.32;2.85;;;3.60;99.90;;;;;;4432904;32;20065;-58
2020/12/09 02:48:19;;;;;;;3.03;2.55;;;3.60;99.90;;;;;;4431986;32;20070;-57
2020/12/09 02:50:44;;;;;;;1.33;1.23;;;3.60;99.90;;;;;;4432498;32;20069;-56
2020/12/09 02:53:09;;;;;;;8.38;2.50;;;3.60;99.90;;;;;;4432277;32;20061;-60
2020/12/09 02:55:35;;;;;;;4.15;2.70;;;3.50;99.90;;;;;;4431339;32;20069;-60
2020/12/09 02:58:00;;;;;;;2.50;2.00;;;3.50;99.90;;;;;;4419175;32;20068;-58
2020/12/09 03:00:26;;;;;;;6.82;2.15;;;3.50;99.90;;;;;;4432482;32;20412;-60
2020/12/09 03:02:52;;;;;;;6.03;3.60;;;3.50;99.90;;;;;;4431588;32;20081;-59
2020/12/09 03:05:17;;;;;;;6.05;3.00;;;3.40;99.90;;;;;;4433772;32;20089;-60
2020/12/09 03:07:43;;;;;;;2.92;2.05;;;3.40;99.90;;;;;;4432216;32;20065;-60
2020/12/09 03:10:09;;;;;;;2.90;2.10;;;3.50;99.90;;;;;;4432759;32;20065;-59
2020/12/09 03:12:34;;;;;;;3.75;2.20;;;3.50;99.90;;;;;;4432548;32;20521;-57
2020/12/09 03:15:00;;;;;;;9.02;3.58;;;3.40;99.90;;;;;;4430733;32;20082;-58
2020/12/09 03:17:25;;;;;;;4.05;2.80;;;3.50;99.90;;;;;;4418760;32;20119;-59
2020/12/09 03:19:51;;;;;;;3.87;2.80;;;3.40;99.90;;;;;;4433434;32;20069;-56
2020/12/09 03:22:17;;;;;;;6.80;2.45;;;3.50;99.90;;;;;;4432855;32;20076;-55
2020/12/09 03:24:42;;;;;;;2.10;1.90;;;3.50;99.90;;;;;;4432027;32;20087;-59
2020/12/09 03:27:08;;;;;;;1.98;1.85;;;3.60;99.90;;;;;;4417637;32;20073;-60
2020/12/09 03:29:33;;;;;;;5.28;3.45;;;3.60;99.90;;;;;;4418174;32;20077;-57
2020/12/09 03:31:59;;;;;;;9.85;2.87;;;3.60;99.90;;;;;;4416967;32;20069;-55
2020/12/09 03:34:24;;;;;;;2.72;2.12;;;3.50;99.90;;;;;;4432135;32;20165;-58
2020/12/09 03:36:50;;;;;;;3.70;2.20;;;3.40;99.90;;;;;;4417804;32;20069;-59
2020/12/09 03:39:15;;;;;;;7.07;3.35;;;3.50;99.90;;;;;;4432003;32;20106;-57
2020/12/09 03:41:41;;;;;;;3.90;2.00;;;3.60;99.90;;;;;;4430842;32;20077;-60
2020/12/09 03:44:06;;;;;;;3.87;1.50;;;3.60;99.90;;;;;;4431693;32;20065;-58
2020/12/09 03:46:31;;;;;;;3.47;2.72;;;3.50;99.90;;;;;;4431189;32;20073;-60
2020/12/09 03:48:57;;;;;;;2.12;1.92;;;3.60;99.90;;;;;;4432188;32;20058;-57
2020/12/09 03:51:22;;;;;;;7.55;2.28;;;3.50;99.90;;;;;;4432303;32;20121;-59
2020/12/09 03:53:48;;;;;;;1.55;1.45;;;3.50;99.90;;;;;;4431460;32;20070;-59
2020/12/09 03:56:13;;;;;;;9.57;2.60;;;3.60;99.90;;;;;;4431100;32;20077;-58
2020/12/09 03:58:39;;;;;;;6.10;2.85;;;3.60;99.90;;;;;;4431580;32;20527;-57
2020/12/09 04:01:06;;;;;;;3.90;2.65;;;3.60;99.90;;;;;;4431793;32;20085;-56
2020/12/09 04:03:31;;;;;;;9.60;4.37;;;3.50;99.90;;;;;;4431202;32;20441;-56
2020/12/09 04:05:56;;;;;;;1.95;1.60;;;3.60;99.90;;;;;;4431375;32;20127;-59
2020/12/09 04:08:22;;;;;;;8.82;4.25;;;3.60;99.90;;;;;;4431623;32;20066;-55
2020/12/09 04:10:47;;;;;;;4.82;2.78;;;3.50;99.90;;;;;;4432292;32;20062;-57
2020/12/09 04:13:16;;;;;;;6.10;1.90;;;3.50;99.90;;;;;;4416696;32;20516;-58
2020/12/09 04:15:41;;;;;;;4.75;2.58;;;3.60;99.90;;;;;;4417357;32;20068;-58
2020/12/09 04:18:07;;;;;;;2.58;1.70;;;3.50;99.90;;;;;;4431399;32;20081;-55
2020/12/09 04:20:33;;;;;;;1.67;1.58;;;3.50;99.90;;;;;;4431820;32;20072;-58
2020/12/09 04:22:58;;;;;;;3.12;1.67;;;3.50;99.90;;;;;;4431078;32;20062;-57
2020/12/09 04:25:24;;;;;;;2.65;1.95;;;3.50;99.90;;;;;;4430351;32;20085;-57
2020/12/09 04:27:49;;;;;;;5.15;2.78;;;3.50;99.90;;;;;;4417323;32;20061;-60
2020/12/09 04:30:15;;;;;;;3.50;2.35;;;3.50;99.90;;;;;;4403572;32;20085;-57
2020/12/09 04:32:40;;;;;;;1.52;1.42;;;3.50;99.90;;;;;;4416862;32;20057;-58
2020/12/09 04:35:07;;;;;;;6.37;2.62;;;3.50;99.90;;;;;;4432147;32;20098;-60
2020/12/09 04:37:32;;;;;;;2.33;1.85;;;3.60;99.90;;;;;;4432270;32;20062;-56
2020/12/09 04:39:58;;;;;;;4.93;2.45;;;3.60;99.90;;;;;;4417192;32;20078;-57
2020/12/09 04:42:25;;;;;;;4.50;3.10;;;3.60;99.90;;;;;;4417461;32;20073;-59
2020/12/09 04:44:52;;;;;;;4.10;2.20;;;3.60;99.90;;;;;;4430487;32;20069;-58
2020/12/09 04:47:26;;;;;;;4.30;2.87;;;3.60;99.90;;;;;;4415233;32;20066;-58
2020/12/09 04:50:04;;;;;;;1.50;1.33;;;3.50;99.90;;;;;;4414993;32;20073;-57
2020/12/09 04:52:44;;;;;;;7.53;2.83;;;3.60;99.90;;;;;;4414287;32;20074;-59
2020/12/09 04:55:12;;;;;;;3.08;1.27;;;3.60;99.90;;;;;;4414837;32;20112;-59
2020/12/09 04:58:02;;;;;;;1.87;1.75;;;3.60;99.90;;;;;;4413993;32;20070;-57
2020/12/09 05:00:29;;;;;;;3.17;2.12;;;3.50;99.90;;;;;;4414053;32;20070;-58
2020/12/09 05:03:19;;;;;;;2.87;2.12;;;3.60;99.90;;;;;;4413759;32;20125;-59
2020/12/09 05:05:47;;;;;;;17.67;3.58;;;3.50;99.90;;;;;;4424510;32;20072;-56
2020/12/09 05:08:19;;;;;;;7.53;2.10;;;3.50;99.90;;;;;;4429991;32;20073;-58
2020/12/09 05:10:47;;;;;;;3.67;2.92;;;3.60;99.90;;;;;;4417052;32;20126;-58
2020/12/09 05:13:21;;;;;;;1.77;1.58;;;3.50;99.90;;;;;;4430613;32;20073;-58
2020/12/09 05:15:51;;;;;;;3.85;2.62;;;3.50;99.90;;;;;;4404361;32;20072;-57
2020/12/09 05:18:24;;;;;;;1.52;1.42;;;3.60;99.90;;;;;;4418334;32;20066;-56
2020/12/09 05:20:52;;;;;;;8.65;4.50;;;3.60;99.90;;;;;;4429923;32;20078;-59
2020/12/09 05:23:24;;;;;;;6.37;2.17;;;3.60;99.90;;;;;;4409458;32;20432;-57
2020/12/09 05:25:50;;;;;;;3.50;2.42;;;3.50;99.90;;;;;;4426570;32;20070;-57
2020/12/09 05:28:15;;;;;;;7.47;2.28;;;3.50;99.90;;;;;;4429164;32;20128;-54
2020/12/09 05:30:45;;;;;;;8.55;3.30;;;3.50;99.90;;;;;;4427033;32;20074;-57
2020/12/09 05:33:14;;;;;;;7.97;3.45;;;3.50;99.90;;;;;;4425947;32;20474;-58
2020/12/09 05:35:40;;;;;;;3.28;2.37;;;3.50;99.90;;;;;;4429875;32;20069;-59
2020/12/09 05:38:12;;;;;;;4.20;2.97;;;3.50;99.90;;;;;;4416533;32;20455;-59
2020/12/09 05:40:39;;;;;;;4.35;2.42;;;3.50;99.90;;;;;;4416937;32;20085;-60
2020/12/09 05:43:05;;;;;;;2.35;2.12;;;3.50;99.90;;;;;;4430241;32;20168;-58
2020/12/09 05:45:30;;;;;;;9.18;2.72;;;3.50;99.90;;;;;;4429396;32;20065;-60
2020/12/09 05:48:16;;;;;;;2.20;1.90;;;3.40;99.90;;;;;;4430260;32;20592;-59
2020/12/09 05:50:48;;;;;;;2.25;2.05;;;3.40;99.90;;;;;;4429920;32;20065;-56
2020/12/09 05:53:18;;;;;;;6.07;2.45;;;3.40;99.90;;;;;;4430343;32;20061;-60
2020/12/09 05:55:44;;;;;;;3.33;2.67;;;3.40;99.90;;;;;;4429437;32;20097;-60
2020/12/09 05:58:27;;;;;;;8.73;1.65;;;3.40;99.90;;;;;;4416329;32;20140;-58
2020/12/09 06:01:14;;;;;;;14.63;2.65;;;3.30;99.90;;;;;;4413994;32;20563;-59
2020/12/09 06:03:44;;;;;;;6.62;3.12;;;3.40;99.90;;;;;;4411695;32;20406;-56
2020/12/09 06:06:11;;;;;;;;;;;3.40;99.90;;;;;;4429747;32;20069;-55
2020/12/09 06:08:39;;;;;;;3.20;2.22;;;3.40;99.90;;;;;;4420542;32;19949;-59
2020/12/09 06:11:05;;;;;;;2.72;2.25;;;3.40;99.90;;;;;;4399461;32;20061;-60
2020/12/09 06:13:32;;;;;;;40.97;5.00;;;3.40;99.90;;;;;;4416112;32;20124;-58
2020/12/09 06:16:00;;;;;;;6.25;3.37;;;3.40;99.90;;;;;;4434656;32;20082;-60
2020/12/09 06:18:28;;;;;;;11.63;3.65;;;3.40;99.90;;;;;;4412366;32;20078;-60
2020/12/09 06:20:54;;;;;;;4.15;3.20;;;3.40;99.90;;;;;;4412266;32;20093;-60
2020/12/09 06:23:19;;;;;;;5.40;3.08;;;3.40;99.90;;;;;;4429935;32;20069;-57
2020/12/09 06:25:46;;;;;;;4.87;3.15;;;3.40;99.90;;;;;;4418312;32;20122;-59
2020/12/09 06:28:17;;;;;;;4.72;1.95;;;3.40;99.90;;;;;;4429364;32;20061;-59
2020/12/09 06:30:43;;;;;;;4.70;2.53;;;3.40;99.90;;;;;;4404155;32;20081;-58
2020/12/09 06:33:10;;;;;;;4.22;3.45;;;3.40;99.90;;;;;;4369454;32;20098;-60
2020/12/09 06:35:36;;;;;;;4.93;2.97;;;3.40;99.90;;;;;;4421450;32;20106;-58
2020/12/09 06:38:11;;;;;;;12.82;1.77;;;3.40;99.90;;;;;;4430123;32;20624;-58
2020/12/09 06:40:38;;;;;;;7.95;4.22;;;3.40;99.90;;;;;;4428167;32;20498;-58
2020/12/09 06:43:06;;;;;;;1.77;1.67;;;3.40;99.90;;;;;;4427892;32;20105;-58
2020/12/09 06:45:47;;;;;;;3.65;2.55;;;3.30;99.90;;;;;;4416069;32;20094;-59
2020/12/09 06:48:16;;;;;;;3.00;2.47;;;3.30;99.90;;;;;;4399730;32;20128;-61
2020/12/09 06:50:43;;;;;;;3.62;2.05;;;3.30;99.90;;;;;;4412436;32;20522;-61
2020/12/09 06:53:14;;;;;;;10.57;3.92;;;3.30;99.90;;;;;;4414917;32;20069;-60
2020/12/09 06:55:40;;;;;;;3.10;2.20;;;3.40;99.90;;;;;;4413927;32;20062;-60
2020/12/09 06:58:28;;;;;;;5.20;2.92;;;3.40;99.90;;;;;;4422898;32;20195;-58
2020/12/09 07:00:59;;;;;;;4.07;2.20;;;3.50;99.90;;;;;;4404951;32;20074;-60
2020/12/09 07:03:26;;;;;;;5.25;1.55;;;3.50;99.90;;;;;;4401784;32;20072;-57
2020/12/09 07:05:53;;;;;;;1.83;1.65;;;3.50;99.90;;;;;;4422530;32;20065;-59
2020/12/09 07:08:18;;;;;;;3.12;2.83;;;3.50;99.90;;;;;;4409070;32;20535;-59
2020/12/09 07:10:44;;;;;;;5.95;3.42;;;3.40;99.90;;;;;;4421888;32;20069;-60
2020/12/09 07:13:12;;;;;;;6.72;3.50;;;3.40;99.90;;;;;;4422462;32;20107;-60
2020/12/09 07:15:42;;;;;;;2.60;2.03;;;3.40;99.90;;;;;;4410517;32;20514;-57
2020/12/09 07:18:08;;;;;;;4.72;2.40;;;3.50;99.90;;;;;;4422404;32;20557;-60
2020/12/09 07:20:34;;;;;;;7.28;2.78;;;3.50;99.90;;;;;;4407445;32;20062;-60
2020/12/09 07:23:00;;;;;;;10.18;3.67;;;3.40;99.90;;;;;;4410814;32;20514;-60
2020/12/09 07:25:25;;;;;;;5.05;2.87;;;3.20;99.90;;;;;;4414342;32;20138;-59
2020/12/09 07:27:51;;;;;;;3.78;2.53;;;3.30;99.90;;;;;;4417916;32;20073;-60
2020/12/09 07:30:18;;;;;;;3.85;2.75;;;3.40;99.90;;;;;;4416597;32;20090;-59
2020/12/09 07:32:46;;;;;;;4.25;2.33;;;3.40;99.90;;;;;;4418331;32;20073;-61
2020/12/09 07:35:13;;;;;;;3.12;2.40;;;3.50;99.90;;;;;;4402893;32;20129;-61
2020/12/09 07:37:42;;;;;;;9.57;3.72;;;3.50;99.90;;;;;;4395322;32;20081;-59
2020/12/09 07:40:10;;;;;;;4.18;3.00;;;3.50;99.90;;;;;;4405121;32;20169;-59
2020/12/09 07:42:37;;;;;;;2.67;1.62;;;3.40;99.90;;;;;;4405812;32;20094;-61
2020/12/09 07:45:09;;;;;;;56.88;3.60;;;3.40;99.90;;;;;;4394137;32;20077;-61
2020/12/09 07:47:34;;;;;;;4.00;2.40;;;3.40;99.90;;;;;;4403691;32;20097;-60
2020/12/09 07:50:03;;;;;;;4.15;2.05;;;3.40;99.90;;;;;;4415881;32;20089;-58
2020/12/09 07:52:32;;;;;;;5.60;3.30;;;3.30;99.90;;;;;;4411924;32;20077;-57
2020/12/09 07:55:02;;;;;;;4.00;2.92;;;3.40;99.90;;;;;;4401212;32;20164;-60
2020/12/09 07:57:30;;;;;;;12.07;4.15;;;3.30;99.90;;;;;;4389990;32;20078;-59
2020/12/09 07:59:57;;;;;;;13.93;3.78;;;3.30;99.90;;;;;;4403348;32;20064;-57
2020/12/09 08:02:24;;;;;;;5.70;2.62;;;3.20;99.90;;;;;;4402848;32;20149;-59
2020/12/09 08:05:26;;;;;;;14.80;4.05;;;3.30;99.90;;;;;;4400771;32;20074;-58
2020/12/09 08:07:55;;;;;;;5.03;3.10;;;3.20;99.90;;;;;;4401598;32;20074;-62
2020/12/09 08:10:25;;;;;;;4.62;3.22;;;3.20;99.90;;;;;;4403501;32;20070;-59
2020/12/09 08:12:59;;;;;;;3.17;2.42;;;3.10;99.90;;;;;;4416267;32;20061;-60
2020/12/09 08:15:25;;;;;;;3.80;2.20;;;3.20;99.90;;;;;;4404997;32;20882;-60
2020/12/09 08:17:50;;;;;;;5.07;2.05;;;3.30;99.90;;;;;;4417648;32;20082;-61
2020/12/09 08:20:17;;;;;;;2.22;2.05;;;3.30;99.90;;;;;;4401848;32;20061;-59
2020/12/09 08:23:02;;;;;;;2.95;2.40;;;3.30;99.90;;;;;;4417249;32;20078;-60
2020/12/09 08:25:30;;;;;;;4.35;2.58;;;3.30;99.90;;;;;;4404793;32;20757;-59
2020/12/09 08:28:05;;;;;;;12.07;5.65;;;3.30;99.90;;;;;;4416229;32;20060;-57
2020/12/09 08:30:31;;;;;;;3.87;2.65;;;3.30;99.90;;;;;;4415967;32;20428;-55
2020/12/09 08:33:00;;;;;;;5.35;2.50;;;3.40;99.90;;;;;;4401827;32;20134;-58
2020/12/09 08:35:27;;;;;;;3.12;2.42;;;3.60;99.90;;;;;;4401056;32;20188;-56
2020/12/09 08:37:53;;;;;;;3.35;2.22;;;3.70;99.90;;;;;;4421065;32;20455;-57
2020/12/09 08:40:18;;;;;;;10.38;4.20;;;3.60;99.90;;;;;;4402599;32;77711;-57
2020/12/09 08:42:55;;;;;;;9.98;3.95;;;3.60;99.90;;;;;;4406469;32;20156;-53
2020/12/09 08:45:21;;;;;;;8.13;3.67;;;3.50;99.90;;;;;;4403546;32;20184;-55
2020/12/09 08:47:47;;;;;;;6.93;3.17;;;3.50;99.90;;;;;;4422561;32;20062;-58
2020/12/09 08:50:13;;;;;;;2.53;2.20;;;3.50;99.90;;;;;;4409584;32;20092;-58
2020/12/09 08:52:39;;;;;;;1.95;1.83;;;3.40;99.90;;;;;;4410255;32;20080;-57
2020/12/09 08:55:04;;;;;;;2.40;1.90;;;3.40;99.90;;;;;;4425890;32;20081;-55
2020/12/09 08:57:30;;;;;;;11.50;2.72;;;3.50;99.90;;;;;;4408034;32;20093;-56
2020/12/09 08:59:55;;;;;;;5.57;2.40;;;3.40;99.90;;;;;;4402418;32;20070;-57
2020/12/09 09:02:21;;;;;;;4.55;3.53;;;3.40;99.90;;;;;;4420750;32;20065;-56
2020/12/09 09:04:46;;;;;;;6.03;3.45;;;3.50;99.90;;;;;;4415820;32;20123;-55
2020/12/09 09:07:12;;;;;;;7.70;4.68;;;3.60;99.90;;;;;;4426735;32;20098;-55
2020/12/09 09:09:37;;;;;;;3.45;2.90;;;3.60;99.90;;;;;;4411831;32;20399;-57
2020/12/09 09:12:03;;;;;;;9.52;4.65;;;3.60;99.90;;;;;;4424947;32;20138;-55
2020/12/09 09:14:31;;;;;;;2.80;2.37;;;3.60;99.90;;;;;;4421541;32;20540;-61
2020/12/09 09:16:59;;;;;;;5.47;2.80;;;3.60;99.90;;;;;;4425381;32;20453;-55
2020/12/09 09:19:24;;;;;;;5.53;2.10;;;3.50;99.90;;;;;;4424929;32;20083;-56
2020/12/09 09:21:51;;;;;;;3.45;2.45;;;3.60;99.90;;;;;;4421883;32;20475;-55
2020/12/09 09:24:16;;;;;;;6.50;4.20;;;3.70;99.90;;;;;;4417487;32;20548;-58
2020/12/09 09:26:42;;;;;;;8.77;3.22;;;3.60;99.90;;;;;;4422936;32;20093;-54
2020/12/09 09:29:07;;;;;;;4.30;3.03;;;3.70;99.90;;;;;;4415570;32;20389;-55
2020/12/09 09:31:33;;;;;;;7.65;3.50;;;3.70;99.90;;;;;;4423515;32;20065;-53
2020/12/09 09:33:58;;;;;;;6.28;3.58;;;3.50;99.90;;;;;;4427095;32;20253;-58
2020/12/09 09:36:29;;;;;;;3.92;2.20;;;3.60;99.90;;;;;;4420814;32;20077;-56
2020/12/09 09:38:54;;;;;;;4.60;3.22;;;3.60;99.90;;;;;;4397629;32;20078;-57
2020/12/09 09:41:20;;;;;;;4.50;3.45;;;3.50;99.90;;;;;;4426895;32;20170;-56
2020/12/09 09:43:45;;;;;;;3.50;2.20;;;3.60;99.90;;;;;;4424254;32;20465;-58
2020/12/09 09:46:11;;;;;;;6.57;2.78;;;3.80;99.90;;;;;;4426629;32;20093;-54
2020/12/09 09:48:36;;;;;;;3.40;2.62;;;3.60;99.90;;;;;;4422892;32;20436;-54
2020/12/09 09:51:02;;;;;;;4.00;2.42;;;3.60;99.90;;;;;;4427489;32;20106;-56
2020/12/09 09:53:27;;;;;;;4.00;3.33;;;3.60;99.90;;;;;;4426445;32;20073;-58
2020/12/09 09:55:53;;;;;;;8.68;2.50;;;3.60;99.90;;;;;;4426706;32;20065;-56
2020/12/09 09:58:18;;;;;;;6.30;2.60;;;3.60;99.90;;;;;;4426480;32;20053;-58
2020/12/09 10:00:44;;;;;;;8.40;3.65;;;3.70;99.90;;;;;;4417054;32;20073;-58
2020/12/09 10:03:09;;;;;;;9.30;3.87;;;3.70;99.90;;;;;;4417569;32;20070;-56
2020/12/09 10:05:34;;;;;;;3.72;2.70;;;3.70;99.90;;;;;;4421769;32;20053;-58
2020/12/09 10:08:00;;;;;;;4.03;2.60;;;3.70;99.90;;;;;;4424246;32;20169;-58
2020/12/09 10:10:25;;;;;;;27.33;4.07;;;3.70;99.90;;;;;;4423179;32;20153;-56
2020/12/09 10:12:51;;;;;;;2.50;1.70;;;3.60;99.90;;;;;;4423223;32;20521;-54
2020/12/09 10:15:16;;;;;;;8.05;3.20;;;3.60;99.90;;;;;;4426861;32;20072;-58
2020/12/09 10:17:42;;;;;;;2.08;1.87;;;3.60;99.90;;;;;;4427070;32;20066;-57
2020/12/09 10:20:07;;;;;;;25.75;2.28;;;3.60;99.90;;;;;;4426418;32;20076;-58
2020/12/09 10:22:33;;;;;;;2.28;2.08;;;3.70;99.90;;;;;;4425259;32;20158;-58
2020/12/09 10:24:59;;;;;;;11.32;3.53;;;3.70;99.90;;;;;;4425742;32;20089;-57
2020/12/09 10:27:24;;;;;;;3.20;2.90;;;3.80;99.90;;;;;;4419412;32;20082;-58
2020/12/09 10:29:50;;;;;;;3.62;2.33;;;3.90;99.90;;;;;;4416620;32;20086;-58
2020/12/09 10:32:16;;;;;;;14.00;3.60;;;3.70;99.90;;;;;;4407333;32;20196;-56
2020/12/09 10:34:41;;;;;;;3.60;2.30;;;3.60;99.90;;;;;;4419274;32;20219;-58
2020/12/09 10:37:08;;;;;;;8.55;3.45;;;3.60;99.90;;;;;;4420679;32;20401;-56
2020/12/09 10:39:33;;;;;;;3.05;2.05;;;3.60;99.90;;;;;;4406496;32;20894;-53
2020/12/09 10:41:59;;;;;;;2.67;2.22;;;3.70;99.90;;;;;;4416742;32;20168;-56
2020/12/09 10:44:24;;;;;;;2.37;2.12;;;3.70;99.90;;;;;;4425767;32;20451;-57
2020/12/09 10:46:50;;;;;;;3.55;2.55;;;3.80;99.90;;;;;;4421218;32;20077;-58
2020/12/09 10:49:16;;;;;;;6.32;3.85;;;3.70;99.90;;;;;;4416539;32;20070;-55
2020/12/09 10:51:44;;;;;;;3.33;2.78;;;3.70;99.90;;;;;;4419531;32;20066;-56
2020/12/09 10:54:10;;;;;;;3.67;2.47;;;3.70;99.90;;;;;;4407732;32;20065;-57
2020/12/09 10:56:35;;;;;;;4.47;2.67;;;3.90;99.90;;;;;;4422429;32;20077;-57
2020/12/09 10:59:02;;;;;;;27.65;3.10;;;3.90;99.90;;;;;;4421526;32;20134;-59
2020/12/09 11:01:29;;;;;;;2.40;2.15;;;3.90;99.90;;;;;;4400926;32;20078;-56
2020/12/09 11:03:55;;;;;;;5.85;2.80;;;4.00;99.90;;;;;;4418380;32;20514;-56
2020/12/09 11:06:30;;;;;;;7.47;4.03;;;3.90;99.90;;;;;;4406307;32;20082;-58
2020/12/09 11:08:56;;;;;;;14.25;3.75;;;3.80;99.90;;;;;;4420542;32;20078;-59
2020/12/09 11:11:23;;;;;;;6.43;3.45;;;3.80;99.90;;;;;;4398738;32;20518;-59
2020/12/09 11:13:49;;;;;;;3.47;2.15;;;3.90;99.90;;;;;;4409534;32;20184;-59
2020/12/09 11:16:16;;;;;;;20.67;3.45;;;3.90;99.90;;;;;;4404055;32;20160;-59
2020/12/09 11:18:43;;;;;;;2.78;1.67;;;3.90;99.90;;;;;;4406466;32;20193;-59
2020/12/09 11:21:09;;;;;;;11.88;4.00;;;3.90;99.90;;;;;;4402472;32;20062;-57
2020/12/09 11:23:36;;;;;;;5.93;2.53;;;3.90;99.90;;;;;;4410935;32;20069;-57
2020/12/09 11:26:01;;;;;;;3.85;2.62;;;3.90;99.90;;;;;;4399290;32;20581;-56
2020/12/09 11:28:27;;;;;;;5.15;3.15;;;4.00;99.90;;;;;;4401916;32;20106;-58
2020/12/09 11:30:52;;;;;;;9.80;4.25;;;3.90;99.90;;;;;;4416918;32;20755;-59
2020/12/09 11:33:18;;;;;;;3.78;2.37;;;3.90;99.90;;;;;;4402714;32;20085;-57
2020/12/09 11:35:43;;;;;;;3.78;2.90;;;3.90;99.90;;;;;;4416596;32;20065;-55
2020/12/09 11:38:09;;;;;;;2.80;2.35;;;3.90;99.90;;;;;;4415839;32;20193;-56
2020/12/09 11:40:34;;;;;;;9.05;2.45;;;3.90;99.90;;;;;;4416942;32;20132;-57
2020/12/09 11:43:01;;;;;;;3.85;2.22;;;4.00;99.90;;;;;;4416340;32;20073;-57
2020/12/09 11:45:26;;;;;;;3.80;3.05;;;4.00;99.90;;;;;;4411077;32;20082;-59
2020/12/09 11:47:52;;;;;;;2.50;1.98;;;4.10;99.90;;;;;;4411427;32;20078;-58
2020/12/09 11:50:17;;;;;;;3.10;2.17;;;4.10;99.90;;;;;;4415522;32;20102;-58
2020/12/09 11:52:44;;;;;;;2.62;1.87;;;4.10;99.90;;;;;;4416439;32;20461;-59
2020/12/09 11:55:11;;;;;;;15.88;4.18;;;4.10;99.90;;;;;;4418024;32;20455;-58
2020/12/09 11:57:37;;;;;;;2.78;1.75;;;4.20;99.90;;;;;;4423293;32;20140;-57
2020/12/09 12:00:04;;;;;;;12.63;3.47;;;4.20;99.90;;;;;;4419124;32;20124;-56
2020/12/09 12:02:29;;;;;;;10.55;2.80;;;4.10;99.90;;;;;;4423060;32;20080;-58
2020/12/09 12:04:56;;;;;;;2.37;2.12;;;4.10;99.90;;;;;;4419467;32;20711;-58
2020/12/09 12:07:22;;;;;;;9.65;5.40;;;4.20;99.90;;;;;;4403420;32;20462;-56
2020/12/09 12:09:48;;;;;;;4.28;3.08;;;4.10;99.90;;;;;;4406832;32;20246;-55
2020/12/09 12:12:13;;;;;;;3.47;2.25;;;4.30;99.90;;;;;;4418826;32;20144;-58
2020/12/09 12:14:39;;;;;;;3.70;2.90;;;4.50;99.90;;;;;;4418096;32;20107;-56
2020/12/09 12:17:08;;;;;;;4.97;2.40;;;4.40;99.90;;;;;;4416446;32;20070;-58
2020/12/09 12:19:35;;;;;;;48.87;4.12;;;4.20;99.90;;;;;;4422510;32;20062;-58
2020/12/09 12:22:01;;;;;;;2.28;1.73;;;4.10;99.90;;;;;;4420817;32;20094;-55
2020/12/09 12:24:27;;;;;;;2.87;1.98;;;4.10;99.90;;;;;;4402226;32;20105;-55
2020/12/09 12:26:52;;;;;;;3.28;2.65;;;4.20;99.90;;;;;;4421010;32;20081;-58
2020/12/09 12:29:18;;;;;;;1.90;1.42;;;4.20;99.90;;;;;;4413573;32;20070;-57
2020/12/09 12:31:43;;;;;;;2.90;2.47;;;4.20;99.90;;;;;;4418638;32;20147;-59
2020/12/09 12:34:09;;;;;;;7.85;3.40;;;4.10;99.90;;;;;;4407380;32;20275;-56
2020/12/09 12:36:34;;;;;;;5.03;2.55;;;4.10;99.90;;;;;;4415186;32;20499;-56
2020/12/09 12:39:00;;;;;;;4.15;2.58;;;4.20;99.90;;;;;;4418507;32;20105;-55
2020/12/09 12:41:25;;;;;;;20.60;5.72;;;4.20;99.90;;;;;;4417520;32;20118;-56
2020/12/09 12:43:51;;;;;;;3.10;2.55;;;4.20;99.90;;;;;;4423963;32;20085;-58
2020/12/09 12:46:17;;;;;;;2.28;2.00;;;4.10;99.90;;;;;;4424398;32;20077;-58
2020/12/09 12:48:44;;;;;;;4.40;2.85;;;4.10;99.90;;;;;;4408738;32;20094;-55
2020/12/09 12:51:09;;;;;;;6.45;2.58;;;3.90;99.90;;;;;;4425583;32;20069;-55
2020/12/09 12:53:35;;;;;;;6.78;2.10;;;3.90;99.90;;;;;;4423762;32;20098;-58